aviador You're here:

PATL Decoded Metar

TATALINA in AK, USA
Report Time2017-12-16 02:55:00
UTC Time2017-12-16 03:41:02
Flight Rules vfr VFR
Wind060° at 10 kt
W.Decomp.*RWY 34: 5.3 kt HW 8.5 kt RCW
W.Rank060° ranks 2
Current wind is above 060° avg. (5.8)
Visibility9999 m
Phenomena:N/A
Clouds:Broken 065 Hf
Expected CloudBase > 400 ft AGL from Temp-Dew spread
Ceiling6,500 ft
Temp-2°C (ISA -15)
Dew Point-3°C (93% RH)
AAT-8.0°C
QNH986 hPa
Density Alt121 ft
Elevation965 ft
Report Wrong Elevation
Raw Report
PATL 160255Z AUTO 06010KT 040V100 10SM BKN065 M02/M03 A2912=

Extra information for PATL:More info

Metar Taf Metar & Taf Last 4 Metars F.Rules Stats Wind Profile Meteogram Temp Stats Airport Information Weather charts Add Link Nearby VenuesMetar ALERT Operation Metar Decoded Social comments

AIRNAV info for PATL